Terminal Aerodrome Forecast
Issued by NWS Springfield, MO

Home | Current Version | Previous Version | Text Only | Print | Product List | Glossary On
Versions: 1 2 3 4 5 6 7 8 9 10 11 12 13 14 15 16 17 18 19 20
676
FTUS43 KSGF 242338
TAFSGF
TAF
KSGF 242338Z 2500/2524 34007KT P6SM BKN150
     FM251200 34004KT P6SM VCSH OVC080
     FM251400 31005KT 6SM -SHRA OVC050
     FM251600 29005KT 6SM -SHRA OVC020
     FM251800 VRB04KT 6SM -SHRA OVC010=

USA.gov is the U.S. government's official web portal to all federal, state and local government web resources and services.